sensor_id;sensor_type;location;lat;lon;timestamp;P1;durP1;ratioP1;P2;durP2;ratioP2
3491;SDS011;1760;52.480;13.422;2023-06-22T00:00:53;9.80;;;8.87;;
3491;SDS011;1760;52.480;13.422;2023-06-22T00:03:21;12.83;;;9.53;;
3491;SDS011;1760;52.480;13.422;2023-06-22T00:05:49;9.90;;;8.60;;
3491;SDS011;1760;52.480;13.422;2023-06-22T00:08:17;12.73;;;9.43;;
3491;SDS011;1760;52.480;13.422;2023-06-22T00:10:46;10.20;;;9.00;;
3491;SDS011;1760;52.480;13.422;2023-06-22T00:13:15;11.63;;;8.70;;
3491;SDS011;1760;52.480;13.422;2023-06-22T00:15:43;11.07;;;8.40;;
3491;SDS011;1760;52.480;13.422;2023-06-22T00:18:10;11.23;;;9.63;;
3491;SDS011;1760;52.480;13.422;2023-06-22T00:20:38;12.37;;;8.83;;
3491;SDS011;1760;52.480;13.422;2023-06-22T00:23:06;10.20;;;9.10;;
3491;SDS011;1760;52.480;13.422;2023-06-22T00:25:33;10.47;;;9.00;;
3491;SDS011;1760;52.480;13.422;2023-06-22T00:28:02;10.53;;;8.07;;
3491;SDS011;1760;52.480;13.422;2023-06-22T00:30:30;12.50;;;8.10;;
3491;SDS011;1760;52.480;13.422;2023-06-22T00:32:57;10.43;;;8.20;;
3491;SDS011;1760;52.480;13.422;2023-06-22T00:35:24;10.40;;;8.57;;
3491;SDS011;1760;52.480;13.422;2023-06-22T00:37:53;11.90;;;8.37;;
3491;SDS011;1760;52.480;13.422;2023-06-22T00:40:25;10.17;;;8.70;;
3491;SDS011;1760;52.480;13.422;2023-06-22T00:42:53;11.87;;;8.47;;
3491;SDS011;1760;52.480;13.422;2023-06-22T00:45:22;11.03;;;8.33;;
3491;SDS011;1760;52.480;13.422;2023-06-22T00:47:50;12.23;;;8.70;;
3491;SDS011;1760;52.480;13.422;2023-06-22T00:50:18;8.87;;;7.83;;
3491;SDS011;1760;52.480;13.422;2023-06-22T00:52:47;8.37;;;7.40;;
3491;SDS011;1760;52.480;13.422;2023-06-22T00:55:17;8.20;;;7.40;;
3491;SDS011;1760;52.480;13.422;2023-06-22T00:57:45;12.43;;;8.70;;
3491;SDS011;1760;52.480;13.422;2023-06-22T01:00:13;10.80;;;8.33;;
3491;SDS011;1760;52.480;13.422;2023-06-22T01:02:43;11.97;;;7.80;;
3491;SDS011;1760;52.480;13.422;2023-06-22T01:05:11;13.03;;;10.20;;
3491;SDS011;1760;52.480;13.422;2023-06-22T01:07:39;9.10;;;7.80;;
3491;SDS011;1760;52.480;13.422;2023-06-22T01:10:16;8.57;;;7.67;;
3491;SDS011;1760;52.480;13.422;2023-06-22T01:12:48;11.40;;;8.90;;
3491;SDS011;1760;52.480;13.422;2023-06-22T01:15:28;9.20;;;8.10;;
3491;SDS011;1760;52.480;13.422;2023-06-22T01:17:59;12.40;;;8.10;;
3491;SDS011;1760;52.480;13.422;2023-06-22T01:20:29;11.30;;;8.80;;
3491;SDS011;1760;52.480;13.422;2023-06-22T01:23:02;8.27;;;7.17;;
3491;SDS011;1760;52.480;13.422;2023-06-22T01:25:37;9.20;;;8.00;;
3491;SDS011;1760;52.480;13.422;2023-06-22T01:28:15;10.97;;;8.27;;
3491;SDS011;1760;52.480;13.422;2023-06-22T01:30:54;11.00;;;8.17;;
3491;SDS011;1760;52.480;13.422;2023-06-22T01:33:30;11.87;;;9.10;;
3491;SDS011;1760;52.480;13.422;2023-06-22T01:35:59;11.47;;;8.83;;
3491;SDS011;1760;52.480;13.422;2023-06-22T01:38:27;10.70;;;8.70;;
3491;SDS011;1760;52.480;13.422;2023-06-22T01:40:55;15.03;;;9.43;;
3491;SDS011;1760;52.480;13.422;2023-06-22T01:43:24;12.07;;;8.87;;
3491;SDS011;1760;52.480;13.422;2023-06-22T01:45:52;11.30;;;9.10;;
3491;SDS011;1760;52.480;13.422;2023-06-22T01:48:22;14.77;;;10.17;;
3491;SDS011;1760;52.480;13.422;2023-06-22T01:50:51;10.57;;;8.77;;
3491;SDS011;1760;52.480;13.422;2023-06-22T01:53:20;10.90;;;9.43;;
3491;SDS011;1760;52.480;13.422;2023-06-22T01:55:47;13.70;;;9.97;;
3491;SDS011;1760;52.480;13.422;2023-06-22T01:58:15;15.13;;;10.40;;
3491;SDS011;1760;52.480;13.422;2023-06-22T02:00:44;12.40;;;9.33;;
3491;SDS011;1760;52.480;13.422;2023-06-22T02:03:17;11.20;;;9.60;;
3491;SDS011;1760;52.480;13.422;2023-06-22T02:05:47;15.30;;;9.80;;
3491;SDS011;1760;52.480;13.422;2023-06-22T02:08:17;11.63;;;9.70;;
3491;SDS011;1760;52.480;13.422;2023-06-22T02:10:46;12.90;;;10.70;;
3491;SDS011;1760;52.480;13.422;2023-06-22T02:13:15;16.87;;;12.30;;
3491;SDS011;1760;52.480;13.422;2023-06-22T02:15:42;13.90;;;11.00;;
3491;SDS011;1760;52.480;13.422;2023-06-22T02:18:10;12.70;;;11.13;;
3491;SDS011;1760;52.480;13.422;2023-06-22T02:20:39;15.53;;;11.00;;
3491;SDS011;1760;52.480;13.422;2023-06-22T02:23:06;16.00;;;10.57;;
3491;SDS011;1760;52.480;13.422;2023-06-22T02:25:33;14.73;;;11.20;;
3491;SDS011;1760;52.480;13.422;2023-06-22T02:28:02;14.07;;;11.00;;
3491;SDS011;1760;52.480;13.422;2023-06-22T02:30:29;14.70;;;11.17;;
3491;SDS011;1760;52.480;13.422;2023-06-22T02:32:56;12.90;;;9.97;;
3491;SDS011;1760;52.480;13.422;2023-06-22T02:35:24;15.10;;;10.70;;
3491;SDS011;1760;52.480;13.422;2023-06-22T02:37:53;11.87;;;9.40;;
3491;SDS011;1760;52.480;13.422;2023-06-22T02:40:20;13.03;;;10.50;;
3491;SDS011;1760;52.480;13.422;2023-06-22T02:42:50;20.73;;;11.30;;
3491;SDS011;1760;52.480;13.422;2023-06-22T02:45:17;12.47;;;10.67;;
3491;SDS011;1760;52.480;13.422;2023-06-22T02:47:44;12.00;;;10.20;;
3491;SDS011;1760;52.480;13.422;2023-06-22T02:50:12;14.13;;;9.80;;
3491;SDS011;1760;52.480;13.422;2023-06-22T02:52:40;12.43;;;10.87;;
3491;SDS011;1760;52.480;13.422;2023-06-22T02:55:08;12.10;;;10.40;;
3491;SDS011;1760;52.480;13.422;2023-06-22T02:57:35;13.63;;;10.63;;
3491;SDS011;1760;52.480;13.422;2023-06-22T03:00:03;13.33;;;10.17;;
3491;SDS011;1760;52.480;13.422;2023-06-22T03:02:41;11.37;;;9.73;;
3491;SDS011;1760;52.480;13.422;2023-06-22T03:05:08;16.10;;;11.33;;
3491;SDS011;1760;52.480;13.422;2023-06-22T03:07:41;12.53;;;10.37;;
3491;SDS011;1760;52.480;13.422;2023-06-22T03:10:10;12.10;;;10.67;;
3491;SDS011;1760;52.480;13.422;2023-06-22T03:12:38;14.57;;;11.60;;
3491;SDS011;1760;52.480;13.422;2023-06-22T03:15:06;18.47;;;12.07;;
3491;SDS011;1760;52.480;13.422;2023-06-22T03:17:34;12.17;;;10.80;;
3491;SDS011;1760;52.480;13.422;2023-06-22T03:20:02;21.53;;;10.03;;
3491;SDS011;1760;52.480;13.422;2023-06-22T03:22:33;13.93;;;9.90;;
3491;SDS011;1760;52.480;13.422;2023-06-22T03:25:00;13.10;;;9.93;;
3491;SDS011;1760;52.480;13.422;2023-06-22T03:27:29;12.67;;;9.70;;
3491;SDS011;1760;52.480;13.422;2023-06-22T03:29:56;14.80;;;10.53;;
3491;SDS011;1760;52.480;13.422;2023-06-22T03:32:23;10.23;;;8.90;;
3491;SDS011;1760;52.480;13.422;2023-06-22T03:34:53;11.63;;;9.50;;
3491;SDS011;1760;52.480;13.422;2023-06-22T03:37:24;11.00;;;8.37;;
3491;SDS011;1760;52.480;13.422;2023-06-22T03:39:51;12.20;;;9.50;;
3491;SDS011;1760;52.480;13.422;2023-06-22T03:42:17;11.47;;;9.43;;
3491;SDS011;1760;52.480;13.422;2023-06-22T03:44:49;11.00;;;7.90;;
3491;SDS011;1760;52.480;13.422;2023-06-22T03:47:16;11.67;;;10.00;;
3491;SDS011;1760;52.480;13.422;2023-06-22T03:49:43;15.00;;;8.90;;
3491;SDS011;1760;52.480;13.422;2023-06-22T03:52:10;9.87;;;7.90;;
3491;SDS011;1760;52.480;13.422;2023-06-22T03:54:36;12.50;;;9.53;;
3491;SDS011;1760;52.480;13.422;2023-06-22T03:57:04;10.90;;;7.83;;
3491;SDS011;1760;52.480;13.422;2023-06-22T03:59:31;13.10;;;8.10;;
3491;SDS011;1760;52.480;13.422;2023-06-22T04:02:00;13.80;;;8.47;;
3491;SDS011;1760;52.480;13.422;2023-06-22T04:04:27;11.00;;;8.00;;
3491;SDS011;1760;52.480;13.422;2023-06-22T04:06:54;10.20;;;8.40;;
3491;SDS011;1760;52.480;13.422;2023-06-22T04:09:21;11.33;;;9.57;;
3491;SDS011;1760;52.480;13.422;2023-06-22T04:11:48;11.23;;;7.33;;
3491;SDS011;1760;52.480;13.422;2023-06-22T04:14:15;10.30;;;8.07;;
3491;SDS011;1760;52.480;13.422;2023-06-22T04:16:42;11.70;;;8.37;;
3491;SDS011;1760;52.480;13.422;2023-06-22T04:19:10;11.40;;;8.77;;
3491;SDS011;1760;52.480;13.422;2023-06-22T04:21:41;9.70;;;8.07;;
3491;SDS011;1760;52.480;13.422;2023-06-22T04:24:08;9.17;;;8.23;;
3491;SDS011;1760;52.480;13.422;2023-06-22T04:26:35;10.30;;;8.67;;
3491;SDS011;1760;52.480;13.422;2023-06-22T04:29:02;13.60;;;8.50;;
3491;SDS011;1760;52.480;13.422;2023-06-22T04:31:30;9.43;;;7.20;;
3491;SDS011;1760;52.480;13.422;2023-06-22T04:34:02;9.00;;;7.77;;
3491;SDS011;1760;52.480;13.422;2023-06-22T04:36:33;12.67;;;7.27;;
3491;SDS011;1760;52.480;13.422;2023-06-22T04:39:03;9.60;;;7.33;;
3491;SDS011;1760;52.480;13.422;2023-06-22T04:41:34;9.47;;;7.37;;
3491;SDS011;1760;52.480;13.422;2023-06-22T04:44:07;13.53;;;9.57;;
3491;SDS011;1760;52.480;13.422;2023-06-22T04:46:36;11.67;;;8.50;;
3491;SDS011;1760;52.480;13.422;2023-06-22T04:49:04;7.37;;;6.63;;
3491;SDS011;1760;52.480;13.422;2023-06-22T04:51:36;9.50;;;6.80;;
3491;SDS011;1760;52.480;13.422;2023-06-22T04:54:05;9.20;;;6.90;;
3491;SDS011;1760;52.480;13.422;2023-06-22T04:56:32;9.07;;;7.03;;
3491;SDS011;1760;52.480;13.422;2023-06-22T04:58:59;9.47;;;6.67;;
3491;SDS011;1760;52.480;13.422;2023-06-22T05:01:28;9.47;;;6.60;;
3491;SDS011;1760;52.480;13.422;2023-06-22T05:03:59;8.50;;;6.27;;
3491;SDS011;1760;52.480;13.422;2023-06-22T05:06:27;9.17;;;6.87;;
3491;SDS011;1760;52.480;13.422;2023-06-22T05:08:56;8.97;;;6.80;;
3491;SDS011;1760;52.480;13.422;2023-06-22T05:11:24;11.50;;;7.77;;
3491;SDS011;1760;52.480;13.422;2023-06-22T05:13:51;8.43;;;7.40;;
3491;SDS011;1760;52.480;13.422;2023-06-22T05:16:19;8.30;;;7.47;;
3491;SDS011;1760;52.480;13.422;2023-06-22T05:18:49;8.07;;;7.27;;
3491;SDS011;1760;52.480;13.422;2023-06-22T05:21:22;8.93;;;7.27;;
3491;SDS011;1760;52.480;13.422;2023-06-22T05:23:50;12.23;;;8.20;;
3491;SDS011;1760;52.480;13.422;2023-06-22T05:26:19;9.13;;;6.00;;
3491;SDS011;1760;52.480;13.422;2023-06-22T05:28:46;9.67;;;7.20;;
3491;SDS011;1760;52.480;13.422;2023-06-22T05:31:15;6.90;;;6.20;;
3491;SDS011;1760;52.480;13.422;2023-06-22T05:33:44;7.90;;;6.83;;
3491;SDS011;1760;52.480;13.422;2023-06-22T05:36:12;7.50;;;6.47;;
3491;SDS011;1760;52.480;13.422;2023-06-22T05:38:40;14.70;;;6.53;;
3491;SDS011;1760;52.480;13.422;2023-06-22T05:41:07;7.33;;;6.37;;
3491;SDS011;1760;52.480;13.422;2023-06-22T05:43:36;10.27;;;6.97;;
3491;SDS011;1760;52.480;13.422;2023-06-22T05:46:03;7.93;;;6.87;;
3491;SDS011;1760;52.480;13.422;2023-06-22T05:48:33;7.03;;;5.30;;
3491;SDS011;1760;52.480;13.422;2023-06-22T05:51:00;9.47;;;6.27;;
3491;SDS011;1760;52.480;13.422;2023-06-22T05:53:27;8.00;;;6.17;;
3491;SDS011;1760;52.480;13.422;2023-06-22T05:55:55;5.87;;;5.00;;
3491;SDS011;1760;52.480;13.422;2023-06-22T05:58:22;9.77;;;6.10;;
3491;SDS011;1760;52.480;13.422;2023-06-22T06:00:50;7.63;;;5.63;;
3491;SDS011;1760;52.480;13.422;2023-06-22T06:03:17;18.60;;;6.50;;
3491;SDS011;1760;52.480;13.422;2023-06-22T06:05:44;7.40;;;6.43;;
3491;SDS011;1760;52.480;13.422;2023-06-22T06:08:11;8.00;;;6.83;;
3491;SDS011;1760;52.480;13.422;2023-06-22T06:10:38;9.77;;;6.77;;
3491;SDS011;1760;52.480;13.422;2023-06-22T06:13:07;6.93;;;6.00;;
3491;SDS011;1760;52.480;13.422;2023-06-22T06:15:34;8.20;;;6.30;;
3491;SDS011;1760;52.480;13.422;2023-06-22T06:18:02;7.17;;;6.33;;
3491;SDS011;1760;52.480;13.422;2023-06-22T06:20:30;9.10;;;5.77;;
3491;SDS011;1760;52.480;13.422;2023-06-22T06:22:57;6.87;;;6.00;;
3491;SDS011;1760;52.480;13.422;2023-06-22T06:25:24;7.37;;;4.80;;
3491;SDS011;1760;52.480;13.422;2023-06-22T06:27:52;4.80;;;4.40;;
3491;SDS011;1760;52.480;13.422;2023-06-22T06:30:19;7.40;;;5.30;;
3491;SDS011;1760;52.480;13.422;2023-06-22T06:32:46;8.30;;;5.60;;
3491;SDS011;1760;52.480;13.422;2023-06-22T06:35:15;6.37;;;5.20;;
3491;SDS011;1760;52.480;13.422;2023-06-22T06:37:43;6.20;;;5.60;;
3491;SDS011;1760;52.480;13.422;2023-06-22T06:40:11;5.67;;;4.80;;
3491;SDS011;1760;52.480;13.422;2023-06-22T06:42:40;6.53;;;5.30;;
3491;SDS011;1760;52.480;13.422;2023-06-22T06:45:09;5.43;;;4.70;;
3491;SDS011;1760;52.480;13.422;2023-06-22T06:47:37;5.50;;;5.00;;
3491;SDS011;1760;52.480;13.422;2023-06-22T06:50:05;8.00;;;4.83;;
3491;SDS011;1760;52.480;13.422;2023-06-22T06:52:34;5.67;;;5.17;;
3491;SDS011;1760;52.480;13.422;2023-06-22T06:55:01;5.43;;;4.40;;
3491;SDS011;1760;52.480;13.422;2023-06-22T06:57:30;6.80;;;4.83;;
3491;SDS011;1760;52.480;13.422;2023-06-22T06:59:57;5.77;;;5.00;;
3491;SDS011;1760;52.480;13.422;2023-06-22T07:02:25;6.20;;;4.10;;
3491;SDS011;1760;52.480;13.422;2023-06-22T07:04:52;5.80;;;4.97;;
3491;SDS011;1760;52.480;13.422;2023-06-22T07:07:21;5.53;;;4.30;;
3491;SDS011;1760;52.480;13.422;2023-06-22T07:09:49;4.80;;;4.30;;
3491;SDS011;1760;52.480;13.422;2023-06-22T07:12:16;7.13;;;4.33;;
3491;SDS011;1760;52.480;13.422;2023-06-22T07:14:43;6.50;;;4.60;;
3491;SDS011;1760;52.480;13.422;2023-06-22T07:17:10;5.00;;;4.50;;
3491;SDS011;1760;52.480;13.422;2023-06-22T07:19:37;5.53;;;4.07;;
3491;SDS011;1760;52.480;13.422;2023-06-22T07:22:07;5.40;;;4.60;;
3491;SDS011;1760;52.480;13.422;2023-06-22T07:24:34;5.20;;;4.37;;
3491;SDS011;1760;52.480;13.422;2023-06-22T07:27:03;4.80;;;3.60;;
3491;SDS011;1760;52.480;13.422;2023-06-22T07:29:31;3.77;;;3.47;;
3491;SDS011;1760;52.480;13.422;2023-06-22T07:31:59;3.63;;;3.33;;
3491;SDS011;1760;52.480;13.422;2023-06-22T07:34:29;3.93;;;3.53;;
3491;SDS011;1760;52.480;13.422;2023-06-22T07:36:56;3.43;;;3.13;;
3491;SDS011;1760;52.480;13.422;2023-06-22T07:39:23;4.53;;;4.13;;
3491;SDS011;1760;52.480;13.422;2023-06-22T07:41:51;5.50;;;3.27;;
3491;SDS011;1760;52.480;13.422;2023-06-22T07:44:20;4.23;;;2.73;;
3491;SDS011;1760;52.480;13.422;2023-06-22T07:46:47;6.63;;;5.00;;
3491;SDS011;1760;52.480;13.422;2023-06-22T07:49:14;9.63;;;6.13;;
3491;SDS011;1760;52.480;13.422;2023-06-22T07:51:41;7.70;;;3.37;;
3491;SDS011;1760;52.480;13.422;2023-06-22T07:54:09;5.37;;;3.60;;
3491;SDS011;1760;52.480;13.422;2023-06-22T07:56:36;4.20;;;2.83;;
3491;SDS011;1760;52.480;13.422;2023-06-22T07:59:03;5.17;;;3.40;;
3491;SDS011;1760;52.480;13.422;2023-06-22T08:01:32;4.33;;;3.10;;
3491;SDS011;1760;52.480;13.422;2023-06-22T08:03:59;3.90;;;2.90;;
3491;SDS011;1760;52.480;13.422;2023-06-22T08:06:26;5.53;;;3.20;;
3491;SDS011;1760;52.480;13.422;2023-06-22T08:08:53;3.57;;;2.60;;
3491;SDS011;1760;52.480;13.422;2023-06-22T08:11:22;6.17;;;3.13;;
3491;SDS011;1760;52.480;13.422;2023-06-22T08:13:50;5.10;;;3.40;;
3491;SDS011;1760;52.480;13.422;2023-06-22T08:16:17;6.03;;;2.90;;
3491;SDS011;1760;52.480;13.422;2023-06-22T08:18:46;3.53;;;3.23;;
3491;SDS011;1760;52.480;13.422;2023-06-22T08:21:13;5.13;;;3.00;;
3491;SDS011;1760;52.480;13.422;2023-06-22T08:23:40;3.70;;;3.20;;
3491;SDS011;1760;52.480;13.422;2023-06-22T08:26:07;3.40;;;3.10;;
3491;SDS011;1760;52.480;13.422;2023-06-22T08:28:36;6.13;;;3.27;;
3491;SDS011;1760;52.480;13.422;2023-06-22T08:31:03;5.37;;;3.00;;
3491;SDS011;1760;52.480;13.422;2023-06-22T08:33:30;3.50;;;3.20;;
3491;SDS011;1760;52.480;13.422;2023-06-22T08:35:59;4.97;;;3.87;;
3491;SDS011;1760;52.480;13.422;2023-06-22T08:38:26;5.13;;;3.73;;
3491;SDS011;1760;52.480;13.422;2023-06-22T08:40:52;6.70;;;3.27;;
3491;SDS011;1760;52.480;13.422;2023-06-22T08:43:19;4.20;;;3.80;;
3491;SDS011;1760;52.480;13.422;2023-06-22T08:45:46;4.27;;;3.47;;
3491;SDS011;1760;52.480;13.422;2023-06-22T08:48:13;4.17;;;3.77;;
3491;SDS011;1760;52.480;13.422;2023-06-22T08:50:40;4.83;;;4.33;;
3491;SDS011;1760;52.480;13.422;2023-06-22T08:53:09;5.13;;;3.80;;
3491;SDS011;1760;52.480;13.422;2023-06-22T08:55:36;3.77;;;3.10;;
3491;SDS011;1760;52.480;13.422;2023-06-22T08:58:06;3.00;;;2.77;;
3491;SDS011;1760;52.480;13.422;2023-06-22T09:00:33;5.13;;;3.60;;
3491;SDS011;1760;52.480;13.422;2023-06-22T09:03:01;4.40;;;3.90;;
3491;SDS011;1760;52.480;13.422;2023-06-22T09:05:28;7.10;;;3.67;;
3491;SDS011;1760;52.480;13.422;2023-06-22T09:07:55;4.50;;;3.53;;
3491;SDS011;1760;52.480;13.422;2023-06-22T09:10:25;6.00;;;3.63;;
3491;SDS011;1760;52.480;13.422;2023-06-22T09:12:52;4.50;;;3.70;;
3491;SDS011;1760;52.480;13.422;2023-06-22T09:15:19;2.90;;;2.60;;
3491;SDS011;1760;52.480;13.422;2023-06-22T09:17:46;3.87;;;3.57;;
3491;SDS011;1760;52.480;13.422;2023-06-22T09:20:14;4.63;;;2.70;;
3491;SDS011;1760;52.480;13.422;2023-06-22T09:22:41;3.80;;;3.40;;
3491;SDS011;1760;52.480;13.422;2023-06-22T09:25:08;3.83;;;3.13;;
3491;SDS011;1760;52.480;13.422;2023-06-22T09:27:37;6.20;;;3.20;;
3491;SDS011;1760;52.480;13.422;2023-06-22T09:30:05;4.13;;;3.30;;
3491;SDS011;1760;52.480;13.422;2023-06-22T09:32:32;3.40;;;3.10;;
3491;SDS011;1760;52.480;13.422;2023-06-22T09:35:02;4.07;;;3.33;;
3491;SDS011;1760;52.480;13.422;2023-06-22T09:37:31;5.37;;;3.00;;
3491;SDS011;1760;52.480;13.422;2023-06-22T09:39:58;7.13;;;2.97;;
3491;SDS011;1760;52.480;13.422;2023-06-22T09:42:25;3.20;;;2.90;;
3491;SDS011;1760;52.480;13.422;2023-06-22T09:44:53;3.30;;;2.93;;
3491;SDS011;1760;52.480;13.422;2023-06-22T09:47:20;4.77;;;3.33;;
3491;SDS011;1760;52.480;13.422;2023-06-22T09:49:47;3.90;;;2.70;;
3491;SDS011;1760;52.480;13.422;2023-06-22T09:52:15;3.43;;;2.90;;
3491;SDS011;1760;52.480;13.422;2023-06-22T09:54:42;5.00;;;3.57;;
3491;SDS011;1760;52.480;13.422;2023-06-22T09:57:09;4.00;;;3.30;;
3491;SDS011;1760;52.480;13.422;2023-06-22T09:59:36;4.20;;;3.67;;
3491;SDS011;1760;52.480;13.422;2023-06-22T10:02:06;3.53;;;3.23;;
3491;SDS011;1760;52.480;13.422;2023-06-22T10:04:35;4.27;;;2.93;;
3491;SDS011;1760;52.480;13.422;2023-06-22T10:07:02;5.13;;;3.80;;
3491;SDS011;1760;52.480;13.422;2023-06-22T10:09:32;6.10;;;3.73;;
3491;SDS011;1760;52.480;13.422;2023-06-22T10:11:59;5.33;;;3.63;;
3491;SDS011;1760;52.480;13.422;2023-06-22T10:14:27;3.60;;;3.27;;
3491;SDS011;1760;52.480;13.422;2023-06-22T10:16:54;4.10;;;3.70;;
3491;SDS011;1760;52.480;13.422;2023-06-22T10:19:23;5.47;;;3.97;;
3491;SDS011;1760;52.480;13.422;2023-06-22T10:21:50;9.43;;;6.63;;
3491;SDS011;1760;52.480;13.422;2023-06-22T10:24:17;5.00;;;4.50;;
3491;SDS011;1760;52.480;13.422;2023-06-22T10:26:44;4.07;;;3.67;;
3491;SDS011;1760;52.480;13.422;2023-06-22T10:29:12;3.83;;;3.40;;
3491;SDS011;1760;52.480;13.422;2023-06-22T10:31:39;4.20;;;3.73;;
3491;SDS011;1760;52.480;13.422;2023-06-22T10:34:06;5.57;;;3.90;;
3491;SDS011;1760;52.480;13.422;2023-06-22T10:36:35;3.30;;;3.00;;
3491;SDS011;1760;52.480;13.422;2023-06-22T10:39:02;3.50;;;2.97;;
3491;SDS011;1760;52.480;13.422;2023-06-22T10:41:32;4.80;;;3.53;;
3491;SDS011;1760;52.480;13.422;2023-06-22T10:44:00;9.10;;;4.03;;
3491;SDS011;1760;52.480;13.422;2023-06-22T10:46:27;4.27;;;3.87;;
3491;SDS011;1760;52.480;13.422;2023-06-22T10:48:54;4.53;;;3.83;;
3491;SDS011;1760;52.480;13.422;2023-06-22T10:51:23;3.60;;;3.30;;
3491;SDS011;1760;52.480;13.422;2023-06-22T10:53:51;4.50;;;3.37;;
3491;SDS011;1760;52.480;13.422;2023-06-22T10:56:18;4.97;;;3.83;;
3491;SDS011;1760;52.480;13.422;2023-06-22T10:58:45;4.93;;;3.27;;
3491;SDS011;1760;52.480;13.422;2023-06-22T11:01:12;4.07;;;3.77;;
3491;SDS011;1760;52.480;13.422;2023-06-22T11:03:39;9.83;;;3.60;;
3491;SDS011;1760;52.480;13.422;2023-06-22T11:06:06;4.27;;;3.60;;
3491;SDS011;1760;52.480;13.422;2023-06-22T11:08:33;3.77;;;3.47;;
3491;SDS011;1760;52.480;13.422;2023-06-22T11:11:02;3.20;;;2.90;;
3491;SDS011;1760;52.480;13.422;2023-06-22T11:13:29;4.60;;;3.73;;
3491;SDS011;1760;52.480;13.422;2023-06-22T11:15:56;3.90;;;3.43;;
3491;SDS011;1760;52.480;13.422;2023-06-22T11:18:23;8.57;;;4.67;;
3491;SDS011;1760;52.480;13.422;2023-06-22T11:20:50;4.20;;;3.80;;
3491;SDS011;1760;52.480;13.422;2023-06-22T11:23:20;3.87;;;3.47;;
3491;SDS011;1760;52.480;13.422;2023-06-22T11:25:47;4.03;;;3.50;;
3491;SDS011;1760;52.480;13.422;2023-06-22T11:28:15;5.33;;;3.50;;
3491;SDS011;1760;52.480;13.422;2023-06-22T11:30:42;5.17;;;3.33;;
3491;SDS011;1760;52.480;13.422;2023-06-22T11:33:09;3.50;;;3.20;;
3491;SDS011;1760;52.480;13.422;2023-06-22T11:35:37;5.23;;;3.47;;
3491;SDS011;1760;52.480;13.422;2023-06-22T11:38:04;4.23;;;3.67;;
3491;SDS011;1760;52.480;13.422;2023-06-22T11:40:31;3.80;;;3.50;;
3491;SDS011;1760;52.480;13.422;2023-06-22T11:42:58;3.57;;;3.23;;
3491;SDS011;1760;52.480;13.422;2023-06-22T11:45:27;4.33;;;3.23;;
3491;SDS011;1760;52.480;13.422;2023-06-22T11:47:54;3.83;;;3.53;;
3491;SDS011;1760;52.480;13.422;2023-06-22T11:50:21;4.33;;;3.53;;
3491;SDS011;1760;52.480;13.422;2023-06-22T11:52:48;4.43;;;3.03;;
3491;SDS011;1760;52.480;13.422;2023-06-22T11:55:15;9.60;;;6.13;;
3491;SDS011;1760;52.480;13.422;2023-06-22T11:57:52;4.13;;;3.40;;
3491;SDS011;1760;52.480;13.422;2023-06-22T12:00:20;15.47;;;10.40;;
3491;SDS011;1760;52.480;13.422;2023-06-22T12:02:50;5.57;;;4.70;;
3491;SDS011;1760;52.480;13.422;2023-06-22T12:05:18;4.13;;;3.73;;
3491;SDS011;1760;52.480;13.422;2023-06-22T12:07:46;3.77;;;3.37;;
3491;SDS011;1760;52.480;13.422;2023-06-22T12:10:13;4.17;;;3.77;;
3491;SDS011;1760;52.480;13.422;2023-06-22T12:12:40;5.57;;;3.60;;
3491;SDS011;1760;52.480;13.422;2023-06-22T12:15:08;5.60;;;3.73;;
3491;SDS011;1760;52.480;13.422;2023-06-22T12:17:36;5.17;;;4.37;;
3491;SDS011;1760;52.480;13.422;2023-06-22T12:20:06;4.93;;;3.83;;
3491;SDS011;1760;52.480;13.422;2023-06-22T12:22:34;4.40;;;3.40;;
3491;SDS011;1760;52.480;13.422;2023-06-22T12:25:02;4.30;;;3.60;;
3491;SDS011;1760;52.480;13.422;2023-06-22T12:27:31;4.80;;;3.90;;
3491;SDS011;1760;52.480;13.422;2023-06-22T12:29:59;5.20;;;3.90;;
3491;SDS011;1760;52.480;13.422;2023-06-22T12:32:26;5.40;;;4.90;;
3491;SDS011;1760;52.480;13.422;2023-06-22T12:34:53;4.33;;;3.93;;
3491;SDS011;1760;52.480;13.422;2023-06-22T12:37:21;4.03;;;3.57;;
3491;SDS011;1760;52.480;13.422;2023-06-22T12:39:49;5.77;;;4.90;;
3491;SDS011;1760;52.480;13.422;2023-06-22T12:42:16;6.10;;;4.27;;
3491;SDS011;1760;52.480;13.422;2023-06-22T12:44:43;4.73;;;4.23;;
3491;SDS011;1760;52.480;13.422;2023-06-22T12:47:10;7.53;;;3.73;;
3491;SDS011;1760;52.480;13.422;2023-06-22T12:49:38;5.27;;;4.73;;
3491;SDS011;1760;52.480;13.422;2023-06-22T12:52:08;4.40;;;4.00;;
3491;SDS011;1760;52.480;13.422;2023-06-22T12:54:37;8.00;;;4.23;;
3491;SDS011;1760;52.480;13.422;2023-06-22T12:57:07;3.70;;;3.40;;
3491;SDS011;1760;52.480;13.422;2023-06-22T12:59:34;4.53;;;4.00;;
3491;SDS011;1760;52.480;13.422;2023-06-22T13:02:01;4.77;;;4.27;;
3491;SDS011;1760;52.480;13.422;2023-06-22T13:04:28;6.17;;;5.17;;
3491;SDS011;1760;52.480;13.422;2023-06-22T13:06:55;6.73;;;5.43;;
3491;SDS011;1760;52.480;13.422;2023-06-22T13:09:22;4.70;;;4.23;;
3491;SDS011;1760;52.480;13.422;2023-06-22T13:11:50;4.90;;;4.33;;
3491;SDS011;1760;52.480;13.422;2023-06-22T13:14:17;4.40;;;3.60;;
3491;SDS011;1760;52.480;13.422;2023-06-22T13:16:44;5.17;;;4.00;;
3491;SDS011;1760;52.480;13.422;2023-06-22T13:19:11;6.10;;;4.57;;
3491;SDS011;1760;52.480;13.422;2023-06-22T13:21:39;4.50;;;4.10;;
3491;SDS011;1760;52.480;13.422;2023-06-22T13:24:08;5.57;;;5.07;;
3491;SDS011;1760;52.480;13.422;2023-06-22T13:26:35;5.13;;;4.63;;
3491;SDS011;1760;52.480;13.422;2023-06-22T13:29:04;6.20;;;4.50;;
3491;SDS011;1760;52.480;13.422;2023-06-22T13:31:31;4.33;;;3.90;;
3491;SDS011;1760;52.480;13.422;2023-06-22T13:33:58;4.90;;;4.47;;
3491;SDS011;1760;52.480;13.422;2023-06-22T13:36:25;5.00;;;4.27;;
3491;SDS011;1760;52.480;13.422;2023-06-22T13:38:55;5.23;;;4.73;;
3491;SDS011;1760;52.480;13.422;2023-06-22T13:41:25;5.23;;;4.37;;
3491;SDS011;1760;52.480;13.422;2023-06-22T13:43:52;5.70;;;5.00;;
3491;SDS011;1760;52.480;13.422;2023-06-22T13:46:21;6.30;;;4.80;;
3491;SDS011;1760;52.480;13.422;2023-06-22T13:48:48;5.63;;;4.73;;
3491;SDS011;1760;52.480;13.422;2023-06-22T13:51:15;5.30;;;4.80;;
3491;SDS011;1760;52.480;13.422;2023-06-22T13:53:42;4.67;;;4.23;;
3491;SDS011;1760;52.480;13.422;2023-06-22T13:56:09;5.97;;;5.00;;
3491;SDS011;1760;52.480;13.422;2023-06-22T13:58:37;6.63;;;5.20;;
3491;SDS011;1760;52.480;13.422;2023-06-22T14:01:04;6.00;;;4.97;;
3491;SDS011;1760;52.480;13.422;2023-06-22T14:03:33;4.60;;;4.10;;
3491;SDS011;1760;52.480;13.422;2023-06-22T14:06:00;5.17;;;4.67;;
3491;SDS011;1760;52.480;13.422;2023-06-22T14:08:26;4.33;;;3.93;;
3491;SDS011;1760;52.480;13.422;2023-06-22T14:10:55;5.00;;;4.30;;
3491;SDS011;1760;52.480;13.422;2023-06-22T14:13:22;6.30;;;3.90;;
3491;SDS011;1760;52.480;13.422;2023-06-22T14:15:49;5.63;;;5.03;;
3491;SDS011;1760;52.480;13.422;2023-06-22T14:18:17;5.73;;;4.37;;
3491;SDS011;1760;52.480;13.422;2023-06-22T14:20:46;10.30;;;4.37;;
3491;SDS011;1760;52.480;13.422;2023-06-22T14:23:12;6.80;;;3.93;;
3491;SDS011;1760;52.480;13.422;2023-06-22T14:25:39;5.53;;;4.93;;
3491;SDS011;1760;52.480;13.422;2023-06-22T14:28:07;8.90;;;5.83;;
3491;SDS011;1760;52.480;13.422;2023-06-22T14:30:34;4.83;;;3.80;;
3491;SDS011;1760;52.480;13.422;2023-06-22T14:33:01;10.30;;;7.30;;
3491;SDS011;1760;52.480;13.422;2023-06-22T14:35:28;6.77;;;5.40;;
3491;SDS011;1760;52.480;13.422;2023-06-22T14:37:56;4.43;;;4.03;;
3491;SDS011;1760;52.480;13.422;2023-06-22T14:40:23;5.80;;;5.20;;
3491;SDS011;1760;52.480;13.422;2023-06-22T14:42:50;5.13;;;4.70;;
3491;SDS011;1760;52.480;13.422;2023-06-22T14:45:17;4.80;;;3.70;;
3491;SDS011;1760;52.480;13.422;2023-06-22T14:47:44;4.20;;;3.80;;
3491;SDS011;1760;52.480;13.422;2023-06-22T14:50:11;5.97;;;4.40;;
3491;SDS011;1760;52.480;13.422;2023-06-22T14:52:39;5.50;;;4.47;;
3491;SDS011;1760;52.480;13.422;2023-06-22T14:55:08;5.00;;;4.40;;
3491;SDS011;1760;52.480;13.422;2023-06-22T14:57:35;4.40;;;4.00;;
3491;SDS011;1760;52.480;13.422;2023-06-22T15:00:02;6.60;;;5.20;;